Terminal Aerodrome Forecast
Issued by NWS

Home | Current Version | Previous Version | Graphics & Text | Print | Product List | Glossary On
Versions: 1 2 3 4 5 6 7 8 9 10 11 12 13 14 15 16 17 18 19 20 21 22 23
000
FTUS43 KGRB 200800 AAA
TAFMTW
TAF AMD
KMTW 200855Z 2009/2106 VRB03KT P6SM SCT015 BKN100
      TEMPO 2009/2013 4SM BR BKN015
     FM201300 32005KT 6SM HZ BKN018
     FM201700 29006KT P6SM BKN020
     FM202000 14006KT 6SM HZ BKN020
      TEMPO 2023/2103 SCT020
     FM210300 VRB03KT 4SM BR SCT015
      TEMPO 2104/2106 1 1/2SM BR SCT005=

USA.gov is the U.S. government's official web portal to all federal, state and local government web resources and services.